Time;durP1;ratioP1;P1;durP2;ratioP2;P2;SDS_P1;SDS_P2;PMS_P1;PMS_P2;Temp;Humidity;BMP_temperature;BMP_pressure;BME280_temperature;BME280_humidity;BME280_pressure;Samples;Min_cycle;Max_cycle;Signal;HPM_P1;HPM_P2
2022/03/24 00:01:59;;;;;;;54.50;36.85;;;;;;;;;;5055066;28;20421;-77
2022/03/24 00:04:26;;;;;;;54.95;36.15;;;;;;;;;;5056100;28;20491;-78
2022/03/24 00:06:52;;;;;;;53.30;36.92;;;;;;;;;;5055306;28;21103;-78
2022/03/24 00:09:18;;;;;;;58.53;36.78;;;;;;;;;;5055955;28;20433;-78
2022/03/24 00:11:47;;;;;;;61.13;38.70;;;;;;;;;;5055980;28;20455;-75
2022/03/24 00:14:14;;;;;;;58.38;38.03;;;;;;;;;;5057837;28;20425;-77
2022/03/24 00:16:40;;;;;;;61.83;39.17;;;;;;;;;;5057041;28;20441;-77
2022/03/24 00:19:07;;;;;;;62.83;40.65;;;;;;;;;;5051101;28;20466;-76
2022/03/24 00:21:33;;;;;;;57.97;38.25;;;;;;;;;;5053120;28;20463;-77
2022/03/24 00:24:00;;;;;;;58.20;38.20;;;;;;;;;;5061242;28;20466;-78
2022/03/24 00:26:26;;;;;;;57.65;39.50;;;;;;;;;;5060326;28;20461;-76
2022/03/24 00:28:54;;;;;;;55.25;35.63;;;;;;;;;;5059158;28;20451;-77
2022/03/24 00:31:20;;;;;;;57.90;40.67;;;;;;;;;;5060821;28;20808;-77
2022/03/24 00:33:46;;;;;;;58.60;37.63;;;;;;;;;;5056393;28;20503;-77
2022/03/24 00:36:14;;;;;;;61.92;39.95;;;;;;;;;;5058451;28;20418;-78
2022/03/24 00:38:41;;;;;;;59.92;40.22;;;;;;;;;;5059509;28;20768;-77
2022/03/24 00:41:07;;;;;;;56.73;38.50;;;;;;;;;;5059127;28;21104;-77
2022/03/24 00:43:33;;;;;;;63.70;40.10;;;;;;;;;;5060932;28;20420;-78
2022/03/24 00:46:01;;;;;;;59.58;37.75;;;;;;;;;;5058120;28;20472;-78
2022/03/24 00:48:27;;;;;;;57.47;39.58;;;;;;;;;;5059463;28;20952;-77
2022/03/24 00:50:54;;;;;;;60.85;40.22;;;;;;;;;;5058992;28;20801;-76
2022/03/24 00:53:20;;;;;;;58.03;39.17;;;;;;;;;;5057802;28;20419;-77
2022/03/24 00:55:46;;;;;;;63.03;39.90;;;;;;;;;;5058984;28;20484;-77
2022/03/24 00:58:13;;;;;;;60.20;39.73;;;;;;;;;;5058186;28;20959;-77
2022/03/24 01:00:40;;;;;;;61.70;41.25;;;;;;;;;;5059891;28;20897;-78
2022/03/24 01:03:08;;;;;;;62.28;38.70;;;;;;;;;;5057815;28;20416;-77
2022/03/24 01:05:37;;;;;;;62.58;40.08;;;;;;;;;;5059010;28;20435;-77
2022/03/24 01:08:04;;;;;;;65.30;42.97;;;;;;;;;;5057192;28;20602;-75
2022/03/24 01:10:30;;;;;;;58.90;39.65;;;;;;;;;;5057394;28;20421;-77
2022/03/24 01:12:59;;;;;;;62.00;39.80;;;;;;;;;;5059343;28;20423;-79
2022/03/24 01:15:26;;;;;;;63.42;42.17;;;;;;;;;;5060667;28;20429;-77
2022/03/24 01:17:52;;;;;;;63.33;39.88;;;;;;;;;;5059843;28;20470;-77
2022/03/24 01:20:21;;;;;;;60.97;40.08;;;;;;;;;;5057900;28;20902;-77
2022/03/24 01:22:47;;;;;;;60.60;39.65;;;;;;;;;;5058995;28;20832;-77
2022/03/24 01:25:16;;;;;;;61.70;41.10;;;;;;;;;;5059882;28;20413;-77
2022/03/24 01:27:43;;;;;;;57.17;39.40;;;;;;;;;;5055934;28;20416;-77
2022/03/24 01:30:09;;;;;;;57.97;38.23;;;;;;;;;;5058868;28;20974;-77
2022/03/24 01:32:36;;;;;;;58.35;40.00;;;;;;;;;;5058930;28;20490;-77
2022/03/24 01:35:03;;;;;;;60.15;39.20;;;;;;;;;;5058776;28;20482;-77
2022/03/24 01:37:31;;;;;;;65.57;41.40;;;;;;;;;;5059024;28;20481;-76
2022/03/24 01:39:57;;;;;;;63.15;40.28;;;;;;;;;;5058170;28;20871;-77
2022/03/24 01:42:26;;;;;;;61.58;40.40;;;;;;;;;;5056962;28;20425;-77
2022/03/24 01:44:53;;;;;;;60.65;39.38;;;;;;;;;;5057651;28;20522;-77
2022/03/24 01:47:20;;;;;;;63.22;40.65;;;;;;;;;;5059126;28;20416;-77
2022/03/24 01:49:47;;;;;;;64.00;39.87;;;;;;;;;;5057396;28;20479;-78
2022/03/24 01:52:15;;;;;;;61.60;41.85;;;;;;;;;;5058481;28;20445;-76
2022/03/24 01:54:44;;;;;;;65.85;41.25;;;;;;;;;;5058231;28;20446;-78
2022/03/24 01:57:11;;;;;;;64.75;41.33;;;;;;;;;;5058698;28;20438;-77
2022/03/24 01:59:38;;;;;;;59.90;40.35;;;;;;;;;;5054383;28;20435;-77
2022/03/24 02:02:04;;;;;;;66.43;42.67;;;;;;;;;;5057959;28;20418;-77
2022/03/24 02:04:32;;;;;;;68.65;40.80;;;;;;;;;;5058539;28;20474;-77
2022/03/24 02:06:59;;;;;;;63.10;41.38;;;;;;;;;;5056165;28;20421;-76
2022/03/24 02:09:25;;;;;;;62.45;40.47;;;;;;;;;;5056798;28;20431;-77
2022/03/24 02:11:53;;;;;;;69.00;42.38;;;;;;;;;;5056673;28;20471;-77
2022/03/24 02:14:19;;;;;;;62.00;40.97;;;;;;;;;;5058842;28;20432;-77
2022/03/24 02:16:47;;;;;;;67.57;43.07;;;;;;;;;;5099059;22;20438;-76
2022/03/24 02:19:15;;;;;;;66.15;41.85;;;;;;;;;;5021301;28;20424;-76
2022/03/24 02:21:42;;;;;;;67.10;42.50;;;;;;;;;;5020739;28;20433;-76
2022/03/24 02:24:12;;;;;;;64.18;40.40;;;;;;;;;;5020903;28;20428;-76
2022/03/24 02:26:40;;;;;;;66.03;43.13;;;;;;;;;;5020375;28;20431;-76
2022/03/24 02:29:07;;;;;;;68.28;42.50;;;;;;;;;;5021546;28;20513;-76
2022/03/24 02:31:33;;;;;;;65.63;41.17;;;;;;;;;;5019394;28;21036;-77
2022/03/24 02:36:41;;;;;;;64.23;40.97;;;;;;;;;;5016129;28;20423;-77
2022/03/24 02:39:08;;;;;;;65.75;40.90;;;;;;;;;;5017789;28;20432;-76
2022/03/24 02:41:45;;;;;;;65.63;43.37;;;;;;;;;;5018790;28;20424;-76
2022/03/24 02:44:14;;;;;;;72.33;41.40;;;;;;;;;;5022245;28;20436;-75
2022/03/24 02:46:40;;;;;;;64.32;41.17;;;;;;;;;;5020247;28;20416;-76
2022/03/24 02:49:07;;;;;;;61.75;39.95;;;;;;;;;;5019569;28;20477;-76
2022/03/24 02:51:33;;;;;;;66.65;41.80;;;;;;;;;;5021460;28;20461;-76
2022/03/24 02:53:59;;;;;;;64.75;40.22;;;;;;;;;;5021634;28;20415;-76
2022/03/24 02:56:26;;;;;;;67.65;42.08;;;;;;;;;;5021944;28;20417;-75
2022/03/24 02:58:53;;;;;;;64.15;40.70;;;;;;;;;;5020579;28;20399;-75
2022/03/24 03:01:21;;;;;;;65.53;41.85;;;;;;;;;;5022318;28;20473;-77
2022/03/24 03:03:47;;;;;;;65.63;41.17;;;;;;;;;;5020290;28;20423;-78
2022/03/24 03:06:13;;;;;;;65.00;41.17;;;;;;;;;;5021391;28;20902;-76
2022/03/24 03:08:40;;;;;;;66.45;43.10;;;;;;;;;;5021778;28;20420;-76
2022/03/24 03:11:06;;;;;;;65.55;42.75;;;;;;;;;;5020152;28;20835;-76
2022/03/24 03:13:34;;;;;;;65.75;43.22;;;;;;;;;;5020764;28;20972;-75
2022/03/24 03:16:02;;;;;;;65.90;41.58;;;;;;;;;;5021797;28;20445;-78
2022/03/24 03:18:32;;;;;;;64.57;40.33;;;;;;;;;;5020922;28;20419;-75
2022/03/24 03:20:59;;;;;;;64.65;42.42;;;;;;;;;;5018547;28;20458;-75
2022/03/24 03:23:25;;;;;;;66.00;43.83;;;;;;;;;;5019390;28;20920;-75
2022/03/24 03:25:51;;;;;;;67.72;42.90;;;;;;;;;;5021701;28;20441;-76
2022/03/24 03:28:18;;;;;;;66.05;41.25;;;;;;;;;;5019135;28;21345;-75
2022/03/24 03:30:45;;;;;;;64.47;40.80;;;;;;;;;;5020492;28;20521;-76
2022/03/24 03:33:13;;;;;;;66.95;40.80;;;;;;;;;;5019688;28;20506;-76
2022/03/24 03:35:39;;;;;;;65.00;42.30;;;;;;;;;;5019499;28;20425;-75
2022/03/24 03:38:08;;;;;;;67.72;42.50;;;;;;;;;;5019871;28;20758;-75
2022/03/24 03:40:34;;;;;;;64.65;41.40;;;;;;;;;;5019313;28;20515;-75
2022/03/24 03:43:00;;;;;;;65.35;41.25;;;;;;;;;;5019023;28;20476;-75
2022/03/24 03:45:26;;;;;;;70.10;42.33;;;;;;;;;;5019468;28;20432;-75
2022/03/24 03:47:53;;;;;;;72.80;42.03;;;;;;;;;;5019609;28;20458;-75
2022/03/24 03:50:21;;;;;;;66.43;41.30;;;;;;;;;;5018342;28;20423;-76
2022/03/24 03:52:47;;;;;;;64.77;42.07;;;;;;;;;;5021195;28;20529;-75
2022/03/24 03:55:14;;;;;;;70.05;43.60;;;;;;;;;;5019708;28;20780;-75
2022/03/24 03:57:40;;;;;;;64.07;40.33;;;;;;;;;;5019891;28;20785;-75
2022/03/24 04:02:47;;;;;;;66.55;42.80;;;;;;;;;;5017905;28;20414;-75
2022/03/24 04:05:14;;;;;;;69.53;42.88;;;;;;;;;;5017728;28;20441;-75
2022/03/24 04:07:42;;;;;;;64.75;41.72;;;;;;;;;;5019870;28;20417;-77
2022/03/24 04:10:09;;;;;;;69.15;42.95;;;;;;;;;;5020550;28;20427;-76
2022/03/24 04:12:35;;;;;;;70.60;43.50;;;;;;;;;;5018961;28;20432;-75
2022/03/24 04:15:02;;;;;;;69.80;42.63;;;;;;;;;;5021401;28;20500;-75
2022/03/24 04:17:28;;;;;;;71.18;44.08;;;;;;;;;;5020123;28;20417;-75
2022/03/24 04:19:54;;;;;;;74.07;45.65;;;;;;;;;;5018983;28;20433;-75
2022/03/24 04:22:20;;;;;;;67.88;42.78;;;;;;;;;;5019083;28;20942;-75
2022/03/24 04:24:48;;;;;;;69.90;44.00;;;;;;;;;;5020359;28;20740;-76
2022/03/24 04:27:14;;;;;;;65.05;41.38;;;;;;;;;;5021815;28;20762;-75
2022/03/24 04:29:40;;;;;;;74.07;45.22;;;;;;;;;;5018210;28;20439;-75
2022/03/24 04:32:07;;;;;;;72.20;43.60;;;;;;;;;;5019727;28;20545;-75
2022/03/24 04:34:33;;;;;;;76.03;45.72;;;;;;;;;;5019264;28;20414;-76
2022/03/24 04:37:00;;;;;;;71.35;44.17;;;;;;;;;;5019489;28;20822;-75
2022/03/24 04:39:26;;;;;;;71.43;44.40;;;;;;;;;;5020096;28;20840;-75
2022/03/24 04:41:54;;;;;;;70.63;43.25;;;;;;;;;;5018286;28;20549;-76
2022/03/24 04:44:24;;;;;;;75.30;45.30;;;;;;;;;;5018476;28;20420;-75
2022/03/24 04:46:50;;;;;;;67.47;41.95;;;;;;;;;;5018059;28;20484;-75
2022/03/24 04:49:16;;;;;;;75.18;42.90;;;;;;;;;;5017624;28;20468;-75
2022/03/24 04:51:42;;;;;;;72.05;43.30;;;;;;;;;;5019105;28;20918;-75
2022/03/24 04:54:09;;;;;;;74.35;45.70;;;;;;;;;;5020062;28;20415;-75
2022/03/24 04:56:35;;;;;;;66.90;41.33;;;;;;;;;;5017511;28;20511;-76
2022/03/24 04:59:03;;;;;;;74.82;44.10;;;;;;;;;;5016413;28;20418;-76
2022/03/24 05:01:29;;;;;;;71.22;44.42;;;;;;;;;;5019292;28;20530;-75
2022/03/24 05:03:55;;;;;;;67.53;43.45;;;;;;;;;;5021129;28;20524;-76
2022/03/24 05:06:22;;;;;;;68.95;43.47;;;;;;;;;;5022673;28;20799;-76
2022/03/24 05:08:50;;;;;;;70.85;44.58;;;;;;;;;;5023531;28;20761;-75
2022/03/24 05:11:16;;;;;;;68.63;42.83;;;;;;;;;;5023866;28;20904;-76
2022/03/24 05:13:43;;;;;;;71.80;42.92;;;;;;;;;;5023448;28;20415;-75
2022/03/24 05:16:10;;;;;;;64.65;41.28;;;;;;;;;;5021888;28;20898;-76
2022/03/24 05:18:38;;;;;;;71.57;43.73;;;;;;;;;;5020529;28;20453;-76
2022/03/24 05:21:04;;;;;;;67.00;43.65;;;;;;;;;;5022327;28;20489;-75
2022/03/24 05:23:30;;;;;;;72.20;45.20;;;;;;;;;;5019482;28;20431;-75
2022/03/24 05:25:58;;;;;;;67.03;42.97;;;;;;;;;;5023896;28;20508;-76
2022/03/24 05:28:25;;;;;;;68.73;43.00;;;;;;;;;;5019767;28;20494;-75
2022/03/24 05:30:51;;;;;;;67.20;43.58;;;;;;;;;;5021753;28;20496;-75
2022/03/24 05:33:18;;;;;;;69.55;44.67;;;;;;;;;;5021976;28;20948;-77
2022/03/24 05:35:45;;;;;;;70.73;44.60;;;;;;;;;;5021775;28;20456;-75
2022/03/24 05:38:11;;;;;;;66.75;43.95;;;;;;;;;;5020371;28;20418;-75
2022/03/24 05:40:37;;;;;;;71.18;43.20;;;;;;;;;;5019043;28;20434;-75
2022/03/24 05:43:04;;;;;;;67.90;44.58;;;;;;;;;;5021008;28;20436;-76
2022/03/24 05:45:30;;;;;;;74.80;46.08;;;;;;;;;;5021788;28;20488;-76
2022/03/24 05:47:56;;;;;;;77.55;47.13;;;;;;;;;;5021934;28;20416;-75
2022/03/24 05:50:24;;;;;;;70.53;44.72;;;;;;;;;;5018755;28;20435;-75
2022/03/24 05:52:51;;;;;;;71.75;44.67;;;;;;;;;;5020583;28;20409;-76
2022/03/24 05:55:18;;;;;;;70.90;44.40;;;;;;;;;;5021678;28;20414;-76
2022/03/24 05:57:44;;;;;;;71.70;45.80;;;;;;;;;;5021078;28;20425;-77
2022/03/24 06:00:11;;;;;;;72.20;44.97;;;;;;;;;;5018377;28;20989;-77
2022/03/24 06:02:38;;;;;;;69.65;44.13;;;;;;;;;;5021917;28;20925;-76
2022/03/24 06:05:09;;;;;;;69.00;42.85;;;;;;;;;;5019112;28;20443;-75
2022/03/24 06:07:37;;;;;;;70.28;44.83;;;;;;;;;;5020143;28;20918;-75
2022/03/24 06:10:04;;;;;;;72.13;45.53;;;;;;;;;;5020065;28;20423;-76
2022/03/24 06:12:31;;;;;;;74.25;44.17;;;;;;;;;;5021047;28;20949;-76
2022/03/24 06:14:57;;;;;;;71.33;43.97;;;;;;;;;;5017431;28;20437;-78
2022/03/24 06:17:24;;;;;;;70.22;43.85;;;;;;;;;;5020299;28;20821;-77
2022/03/24 06:19:52;;;;;;;69.68;44.42;;;;;;;;;;5019273;28;20915;-76
2022/03/24 06:22:18;;;;;;;73.22;43.55;;;;;;;;;;5018224;28;20917;-75
2022/03/24 06:24:46;;;;;;;71.13;44.78;;;;;;;;;;5020225;28;20817;-75
2022/03/24 06:27:12;;;;;;;66.95;43.25;;;;;;;;;;5020480;28;20420;-75
2022/03/24 06:29:39;;;;;;;76.93;45.83;;;;;;;;;;5017548;28;20445;-76
2022/03/24 06:32:06;;;;;;;74.85;45.10;;;;;;;;;;5017164;28;20492;-76
2022/03/24 06:34:32;;;;;;;76.43;44.92;;;;;;;;;;5019613;28;20636;-75
2022/03/24 06:36:59;;;;;;;69.72;43.80;;;;;;;;;;5018875;28;20891;-76
2022/03/24 06:39:25;;;;;;;75.65;46.45;;;;;;;;;;5019211;28;20437;-76
2022/03/24 06:41:53;;;;;;;78.90;48.05;;;;;;;;;;5018176;28;20420;-76
2022/03/24 06:44:20;;;;;;;73.15;46.53;;;;;;;;;;5021671;28;20435;-75
2022/03/24 06:46:47;;;;;;;81.75;47.58;;;;;;;;;;5020151;28;21739;-76
2022/03/24 06:49:14;;;;;;;74.82;47.08;;;;;;;;;;5018536;28;21155;-76
2022/03/24 06:51:40;;;;;;;81.25;48.40;;;;;;;;;;5018272;28;20909;-76
2022/03/24 06:54:06;;;;;;;81.57;49.88;;;;;;;;;;5020727;28;20406;-76
2022/03/24 06:56:33;;;;;;;78.77;48.70;;;;;;;;;;5018655;28;20882;-76
2022/03/24 06:59:00;;;;;;;82.70;49.22;;;;;;;;;;5018751;28;20438;-76
2022/03/24 07:01:27;;;;;;;79.05;49.58;;;;;;;;;;5020287;28;20406;-76
2022/03/24 07:03:53;;;;;;;76.83;48.43;;;;;;;;;;5018342;28;20443;-76
2022/03/24 07:06:20;;;;;;;81.65;50.92;;;;;;;;;;5020113;28;20783;-77
2022/03/24 07:08:46;;;;;;;74.68;49.38;;;;;;;;;;5018950;28;20432;-76
2022/03/24 07:11:13;;;;;;;76.70;49.55;;;;;;;;;;5019548;28;20433;-76
2022/03/24 07:13:39;;;;;;;71.10;47.20;;;;;;;;;;5018759;28;20915;-76
2022/03/24 07:16:07;;;;;;;72.38;46.00;;;;;;;;;;5020050;28;20923;-76
2022/03/24 07:18:33;;;;;;;70.90;47.03;;;;;;;;;;5017795;28;20426;-76
2022/03/24 07:20:59;;;;;;;69.75;45.08;;;;;;;;;;5019317;28;20796;-76
2022/03/24 07:23:26;;;;;;;70.10;46.45;;;;;;;;;;5018515;28;20914;-77
2022/03/24 07:25:52;;;;;;;70.60;45.90;;;;;;;;;;5019538;28;20424;-76
2022/03/24 07:28:18;;;;;;;66.00;44.33;;;;;;;;;;5019014;28;20426;-76
2022/03/24 07:30:50;;;;;;;63.80;43.45;;;;;;;;;;5019839;28;20453;-76
2022/03/24 07:33:19;;;;;;;65.32;43.72;;;;;;;;;;5019246;28;20848;-76
2022/03/24 07:35:45;;;;;;;61.58;43.78;;;;;;;;;;5019242;28;20481;-76
2022/03/24 07:38:11;;;;;;;65.97;45.15;;;;;;;;;;5014154;28;20950;-76
2022/03/24 07:40:38;;;;;;;63.17;43.95;;;;;;;;;;5020826;28;20430;-76
2022/03/24 07:43:05;;;;;;;67.10;44.22;;;;;;;;;;5020631;28;20426;-77
2022/03/24 07:45:37;;;;;;;63.83;44.15;;;;;;;;;;5019598;28;20482;-77
2022/03/24 07:48:09;;;;;;;60.08;43.65;;;;;;;;;;5018979;28;20433;-76
2022/03/24 07:50:37;;;;;;;65.13;45.65;;;;;;;;;;5019413;28;20483;-76
2022/03/24 07:53:16;;;;;;;67.00;44.33;;;;;;;;;;5019440;28;20959;-76
2022/03/24 07:55:44;;;;;;;62.58;44.35;;;;;;;;;;5019294;28;20927;-77
2022/03/24 07:58:10;;;;;;;61.70;42.72;;;;;;;;;;5017859;28;20446;-76
2022/03/24 08:00:37;;;;;;;63.45;42.30;;;;;;;;;;5018639;28;20905;-76
2022/03/24 08:03:05;;;;;;;57.67;39.17;;;;;;;;;;5019775;28;20432;-78
2022/03/24 08:05:32;;;;;;;60.22;42.20;;;;;;;;;;5018826;28;20433;-77
2022/03/24 08:07:59;;;;;;;59.75;40.08;;;;;;;;;;5013011;28;20436;-76
2022/03/24 08:10:26;;;;;;;51.38;39.70;;;;;;;;;;5017856;28;20438;-78
2022/03/24 08:12:52;;;;;;;58.33;39.08;;;;;;;;;;5019575;28;20427;-77
2022/03/24 08:15:18;;;;;;;58.75;39.10;;;;;;;;;;5020886;28;20444;-77
2022/03/24 08:17:44;;;;;;;53.53;37.17;;;;;;;;;;5019378;28;20506;-76
2022/03/24 08:20:11;;;;;;;52.97;39.00;;;;;;;;;;5065473;22;20444;-80
2022/03/24 08:22:39;;;;;;;55.72;38.80;;;;;;;;;;5063577;28;20421;-83
2022/03/24 08:25:09;;;;;;;63.88;40.67;;;;;;;;;;5063441;28;20469;-79
2022/03/24 08:27:35;;;;;;;59.70;40.63;;;;;;;;;;5062215;28;20428;-80
2022/03/24 08:30:01;;;;;;;56.35;40.85;;;;;;;;;;5067425;28;20444;-81
2022/03/24 08:32:27;;;;;;;61.40;41.10;;;;;;;;;;5068909;28;20444;-81
2022/03/24 08:34:54;;;;;;;60.83;41.45;;;;;;;;;;5067002;28;20477;-80
2022/03/24 08:37:20;;;;;;;61.27;41.20;;;;;;;;;;5062868;28;20412;-81
2022/03/24 08:39:46;;;;;;;70.43;40.63;;;;;;;;;;5064455;28;20427;-79
2022/03/24 08:42:14;;;;;;;55.38;39.95;;;;;;;;;;5064946;28;20840;-78
2022/03/24 08:44:40;;;;;;;59.53;40.60;;;;;;;;;;5054808;28;20495;-81
2022/03/24 08:47:07;;;;;;;55.90;39.72;;;;;;;;;;5068018;28;20838;-81
2022/03/24 08:49:34;;;;;;;58.60;40.75;;;;;;;;;;5065362;28;20482;-80
2022/03/24 08:52:00;;;;;;;60.50;41.00;;;;;;;;;;5067672;28;20525;-80
2022/03/24 08:54:26;;;;;;;58.63;40.80;;;;;;;;;;5067046;28;20432;-80
2022/03/24 08:56:53;;;;;;;57.50;41.15;;;;;;;;;;5069072;28;20439;-80
2022/03/24 08:59:20;;;;;;;55.90;39.70;;;;;;;;;;5066837;28;20893;-80
2022/03/24 09:01:46;;;;;;;60.78;41.67;;;;;;;;;;5064888;28;20495;-81
2022/03/24 09:04:13;;;;;;;62.40;42.47;;;;;;;;;;5069788;28;20471;-81
2022/03/24 09:06:40;;;;;;;66.75;40.92;;;;;;;;;;5067281;28;20425;-81
2022/03/24 09:09:07;;;;;;;64.25;42.30;;;;;;;;;;5067181;28;20409;-83
2022/03/24 09:11:33;;;;;;;66.85;42.97;;;;;;;;;;5066909;28;20433;-81
2022/03/24 09:13:59;;;;;;;69.18;43.92;;;;;;;;;;5067628;28;20408;-80
2022/03/24 09:16:27;;;;;;;63.05;43.45;;;;;;;;;;5064495;28;20436;-81
2022/03/24 09:18:53;;;;;;;63.33;41.97;;;;;;;;;;5063964;28;20430;-81
2022/03/24 09:21:19;;;;;;;64.35;43.17;;;;;;;;;;5064601;28;20490;-81
2022/03/24 09:23:46;;;;;;;61.15;43.08;;;;;;;;;;5065924;28;20427;-81
2022/03/24 09:26:13;;;;;;;71.68;43.33;;;;;;;;;;5063980;28;20428;-81
2022/03/24 09:28:39;;;;;;;63.73;43.67;;;;;;;;;;5063639;28;20416;-82
2022/03/24 09:31:05;;;;;;;66.47;43.15;;;;;;;;;;5062766;28;20435;-82
2022/03/24 09:33:33;;;;;;;59.40;41.17;;;;;;;;;;5061977;28;20962;-82
2022/03/24 09:35:59;;;;;;;68.55;43.40;;;;;;;;;;5062617;28;20431;-83
2022/03/24 09:38:26;;;;;;;68.47;43.20;;;;;;;;;;5062196;28;20426;-81
2022/03/24 09:40:52;;;;;;;62.92;44.05;;;;;;;;;;5064527;28;20461;-81
2022/03/24 09:43:18;;;;;;;67.40;41.72;;;;;;;;;;5064995;28;20442;-82
2022/03/24 09:45:47;;;;;;;62.87;38.80;;;;;;;;;;5065746;28;20439;-80
2022/03/24 09:48:15;;;;;;;61.78;41.45;;;;;;;;;;5065124;28;20417;-81
2022/03/24 09:50:44;;;;;;;61.03;41.88;;;;;;;;;;5063113;28;20433;-83
2022/03/24 09:53:11;;;;;;;56.58;40.08;;;;;;;;;;5065036;28;20419;-81
2022/03/24 09:55:37;;;;;;;60.28;38.33;;;;;;;;;;5065997;28;20501;-82
2022/03/24 09:58:04;;;;;;;59.58;39.40;;;;;;;;;;5064201;28;20485;-80
2022/03/24 10:00:31;;;;;;;59.15;39.33;;;;;;;;;;5065713;28;20425;-82
2022/03/24 10:03:07;;;;;;;61.90;42.00;;;;;;;;;;5064993;28;20424;-82
2022/03/24 10:05:33;;;;;;;57.83;40.38;;;;;;;;;;5064030;28;20435;-82
2022/03/24 10:08:05;;;;;;;61.45;41.47;;;;;;;;;;5062016;28;20423;-80
2022/03/24 10:10:34;;;;;;;57.58;41.72;;;;;;;;;;5065964;28;20433;-82
2022/03/24 10:13:00;;;;;;;58.10;40.08;;;;;;;;;;5066329;28;20406;-83
2022/03/24 10:15:26;;;;;;;57.05;38.97;;;;;;;;;;5068017;28;20440;-82
2022/03/24 10:17:53;;;;;;;54.78;37.20;;;;;;;;;;5058425;28;20561;-83
2022/03/24 10:20:20;;;;;;;50.80;38.22;;;;;;;;;;5065712;28;20427;-83
2022/03/24 10:22:53;;;;;;;57.80;39.45;;;;;;;;;;5066928;28;20427;-84
2022/03/24 10:25:21;;;;;;;58.95;40.95;;;;;;;;;;5065786;28;20419;-83
2022/03/24 10:27:50;;;;;;;63.65;43.15;;;;;;;;;;5064536;28;20476;-82
2022/03/24 10:30:16;;;;;;;67.85;42.88;;;;;;;;;;5063844;28;20795;-82
2022/03/24 10:32:54;;;;;;;56.20;40.17;;;;;;;;;;5065653;28;20939;-83
2022/03/24 10:35:21;;;;;;;57.70;41.37;;;;;;;;;;5063332;28;20471;-83
2022/03/24 10:37:51;;;;;;;59.78;40.58;;;;;;;;;;5064784;28;20427;-83
2022/03/24 10:40:17;;;;;;;58.67;40.60;;;;;;;;;;5063728;28;20440;-83
2022/03/24 10:42:45;;;;;;;57.95;40.30;;;;;;;;;;5066377;28;20412;-83
2022/03/24 10:45:13;;;;;;;59.00;39.90;;;;;;;;;;5067147;28;20420;-83
2022/03/24 10:47:41;;;;;;;54.92;38.47;;;;;;;;;;5065468;28;20413;-82
2022/03/24 10:50:26;;;;;;;52.38;38.03;;;;;;;;;;5063409;28;20413;-83
2022/03/24 10:52:53;;;;;;;47.00;35.60;;;;;;;;;;5066726;28;20416;-83
2022/03/24 10:55:25;;;;;;;48.03;36.88;;;;;;;;;;5064972;28;20419;-82
2022/03/24 10:57:53;;;;;;;54.13;35.78;;;;;;;;;;5065319;28;20409;-83
2022/03/24 11:00:20;;;;;;;54.78;36.70;;;;;;;;;;5069377;28;20487;-82
2022/03/24 11:02:46;;;;;;;50.10;35.15;;;;;;;;;;5070016;28;20413;-82
2022/03/24 11:05:13;;;;;;;53.92;36.15;;;;;;;;;;5073007;28;20408;-83
2022/03/24 11:07:39;;;;;;;49.25;33.70;;;;;;;;;;5070893;28;20416;-83
2022/03/24 11:10:10;;;;;;;49.53;34.65;;;;;;;;;;5068255;28;20433;-83
2022/03/24 11:12:39;;;;;;;48.55;35.03;;;;;;;;;;5071277;28;20416;-83
2022/03/24 11:15:09;;;;;;;44.63;34.13;;;;;;;;;;5067456;28;20436;-82
2022/03/24 11:17:36;;;;;;;45.50;35.22;;;;;;;;;;5064902;28;20507;-83
2022/03/24 11:20:07;;;;;;;49.53;34.25;;;;;;;;;;5069068;28;20915;-82
2022/03/24 11:22:43;;;;;;;44.27;33.50;;;;;;;;;;5069418;28;20407;-83
2022/03/24 11:25:10;;;;;;;46.10;33.45;;;;;;;;;;5070250;28;20419;-83
2022/03/24 11:27:36;;;;;;;46.95;34.80;;;;;;;;;;5069663;28;20911;-83
2022/03/24 11:30:03;;;;;;;47.53;32.85;;;;;;;;;;5070406;28;20412;-83
2022/03/24 11:32:34;;;;;;;36.20;26.05;;;;;;;;;;5069407;28;20412;-82
2022/03/24 11:35:01;;;;;;;42.85;32.15;;;;;;;;;;5067829;28;20784;-82
2022/03/24 11:37:28;;;;;;;45.75;35.20;;;;;;;;;;5071089;28;20411;-83
2022/03/24 11:40:06;;;;;;;49.40;36.17;;;;;;;;;;5069912;28;20417;-81
2022/03/24 11:42:34;;;;;;;49.30;35.40;;;;;;;;;;5069859;28;20948;-82
2022/03/24 11:45:02;;;;;;;58.53;37.20;;;;;;;;;;5070710;28;20443;-81
2022/03/24 11:47:34;;;;;;;45.47;30.83;;;;;;;;;;5066491;28;20467;-82
2022/03/24 11:50:09;;;;;;;44.28;33.35;;;;;;;;;;5067059;28;20419;-82
2022/03/24 11:52:35;;;;;;;49.35;34.05;;;;;;;;;;5066366;28;20429;-82
2022/03/24 11:55:03;;;;;;;46.22;31.58;;;;;;;;;;5069243;28;20723;-82
2022/03/24 11:57:33;;;;;;;50.40;32.65;;;;;;;;;;5069126;28;20419;-82
2022/03/24 12:00:19;;;;;;;45.73;33.67;;;;;;;;;;5066767;28;20415;-82
2022/03/24 12:02:46;;;;;;;53.40;37.65;;;;;;;;;;5066493;28;21015;-81
2022/03/24 12:05:14;;;;;;;46.78;35.40;;;;;;;;;;5068009;28;20414;-82
2022/03/24 12:07:40;;;;;;;48.83;35.10;;;;;;;;;;5060306;28;20434;-83
2022/03/24 12:10:08;;;;;;;46.20;32.17;;;;;;;;;;5068411;28;20411;-83
2022/03/24 12:12:35;;;;;;;41.75;31.08;;;;;;;;;;5071266;28;20496;-83
2022/03/24 12:15:09;;;;;;;44.30;31.83;;;;;;;;;;5073077;28;20477;-83
2022/03/24 12:17:35;;;;;;;43.75;31.08;;;;;;;;;;5071564;28;20449;-83
2022/03/24 12:20:02;;;;;;;39.10;31.38;;;;;;;;;;5072124;28;20417;-83
2022/03/24 12:22:43;;;;;;;47.42;30.63;;;;;;;;;;5069794;28;20425;-83
2022/03/24 12:25:26;;;;;;;41.03;31.90;;;;;;;;;;5071416;28;20453;-83
2022/03/24 12:27:57;;;;;;;45.13;31.10;;;;;;;;;;5070970;28;20498;-82
2022/03/24 12:30:24;;;;;;;49.53;32.13;;;;;;;;;;5071003;28;20416;-83
2022/03/24 12:33:01;;;;;;;46.38;31.67;;;;;;;;;;5070912;28;20425;-83
2022/03/24 12:35:43;;;;;;;43.87;32.90;;;;;;;;;;5072251;28;20451;-83
2022/03/24 12:38:30;;;;;;;44.40;31.90;;;;;;;;;;5066240;28;20434;-82
2022/03/24 12:41:16;;;;;;;44.75;32.10;;;;;;;;;;5058393;28;20425;-83
2022/03/24 12:43:46;;;;;;;42.38;30.50;;;;;;;;;;5071709;28;20419;-83
2022/03/24 12:46:18;;;;;;;44.78;31.23;;;;;;;;;;5073140;28;20917;-82
2022/03/24 12:48:44;;;;;;;42.78;31.40;;;;;;;;;;5069059;28;20445;-81
2022/03/24 12:51:16;;;;;;;44.60;31.35;;;;;;;;;;5068889;28;20533;-83
2022/03/24 12:53:50;;;;;;;43.92;32.00;;;;;;;;;;5071439;28;20439;-83
2022/03/24 12:56:20;;;;;;;41.97;29.45;;;;;;;;;;5069461;28;20515;-83
2022/03/24 12:58:52;;;;;;;45.90;31.40;;;;;;;;;;5071705;28;20428;-83
2022/03/24 13:01:18;;;;;;;41.72;29.40;;;;;;;;;;5069588;28;20464;-84
2022/03/24 13:03:45;;;;;;;37.20;29.10;;;;;;;;;;5070700;28;20467;-81
2022/03/24 13:06:13;;;;;;;40.03;30.63;;;;;;;;;;5069774;28;20413;-83
2022/03/24 13:08:39;;;;;;;42.17;30.60;;;;;;;;;;5069992;28;20471;-83
2022/03/24 13:11:05;;;;;;;42.90;31.57;;;;;;;;;;5067542;28;20433;-83
2022/03/24 13:13:31;;;;;;;39.28;29.35;;;;;;;;;;5069216;28;20416;-83
2022/03/24 13:15:59;;;;;;;40.50;29.33;;;;;;;;;;5069134;28;20783;-84
2022/03/24 13:18:26;;;;;;;48.20;28.63;;;;;;;;;;5069435;28;20428;-82
2022/03/24 13:20:53;;;;;;;41.25;28.77;;;;;;;;;;5068650;28;20811;-82
2022/03/24 13:23:20;;;;;;;41.15;28.77;;;;;;;;;;5068684;28;20448;-83
2022/03/24 13:25:48;;;;;;;38.40;27.52;;;;;;;;;;5068739;28;20445;-82
2022/03/24 13:28:15;;;;;;;39.03;28.75;;;;;;;;;;5069446;28;20417;-82
2022/03/24 13:30:42;;;;;;;36.60;28.38;;;;;;;;;;5066577;28;20518;-83
2022/03/24 13:33:11;;;;;;;38.40;29.17;;;;;;;;;;5067110;28;20413;-83
2022/03/24 13:35:38;;;;;;;38.45;28.70;;;;;;;;;;5070003;28;20430;-83
2022/03/24 13:38:05;;;;;;;42.55;28.55;;;;;;;;;;5069980;28;20446;-81
2022/03/24 13:40:32;;;;;;;38.38;29.50;;;;;;;;;;5070157;28;20420;-83
2022/03/24 13:42:59;;;;;;;38.67;27.60;;;;;;;;;;5069012;28;20575;-82
2022/03/24 13:45:25;;;;;;;41.83;28.77;;;;;;;;;;5069966;28;20509;-83
2022/03/24 13:47:54;;;;;;;39.60;29.17;;;;;;;;;;5069677;28;20415;-82
2022/03/24 13:50:22;;;;;;;40.57;27.27;;;;;;;;;;5066624;28;20425;-82
2022/03/24 13:52:51;;;;;;;39.27;28.20;;;;;;;;;;5069104;28;20473;-83
2022/03/24 13:55:18;;;;;;;39.20;28.15;;;;;;;;;;5068406;28;20437;-83
2022/03/24 13:57:49;;;;;;;37.80;26.80;;;;;;;;;;5069455;28;20432;-82
2022/03/24 14:00:32;;;;;;;38.37;27.33;;;;;;;;;;5068026;28;20897;-83
2022/03/24 14:03:00;;;;;;;37.50;25.58;;;;;;;;;;5068118;28;20419;-83
2022/03/24 14:05:41;;;;;;;36.35;27.05;;;;;;;;;;5067266;28;20512;-82
2022/03/24 14:08:09;;;;;;;30.30;23.67;;;;;;;;;;5065461;28;20424;-82
2022/03/24 14:10:43;;;;;;;34.10;25.23;;;;;;;;;;5064229;28;20437;-83
2022/03/24 14:13:13;;;;;;;39.53;25.17;;;;;;;;;;5067564;28;20429;-83
2022/03/24 14:15:39;;;;;;;35.72;25.55;;;;;;;;;;5068369;28;20469;-83
2022/03/24 14:18:15;;;;;;;33.63;23.55;;;;;;;;;;5068164;28;20417;-83
2022/03/24 14:20:42;;;;;;;34.50;24.17;;;;;;;;;;5102494;22;21131;-79
2022/03/24 14:23:10;;;;;;;38.80;26.50;;;;;;;;;;5054837;28;20449;-81
2022/03/24 14:25:37;;;;;;;35.33;27.35;;;;;;;;;;5054211;28;20445;-80